createdAt,value
2022-10-12T00:01:10.423Z,14.75
2022-10-12T00:03:39.426Z,15.95
2022-10-12T00:06:19.313Z,17.85
2022-10-12T00:08:48.532Z,12.73
2022-10-12T00:11:22.250Z,15.35
2022-10-12T00:13:50.324Z,14.02
2022-10-12T00:16:20.062Z,17.13
2022-10-12T00:18:52.764Z,13.60
2022-10-12T00:21:21.343Z,16.38
2022-10-12T00:23:54.321Z,16.83
2022-10-12T00:26:26.275Z,21.17
2022-10-12T00:29:00.110Z,16.98
2022-10-12T00:31:29.372Z,14.90
2022-10-12T00:33:57.420Z,17.27
2022-10-12T00:36:28.539Z,19.20
2022-10-12T00:38:57.672Z,13.88
2022-10-12T00:41:33.490Z,10.50
2022-10-12T00:44:01.651Z,15.80
2022-10-12T00:46:40.382Z,14.60
2022-10-12T00:49:23.576Z,12.98
2022-10-12T00:52:15.833Z,17.48
2022-10-12T00:54:47.895Z,15.23
2022-10-12T00:57:17.903Z,14.82
2022-10-12T00:59:57.849Z,22.00
2022-10-12T01:02:28.962Z,18.70
2022-10-12T01:04:57.545Z,12.63
2022-10-12T01:07:25.425Z,14.00
2022-10-12T01:09:57.214Z,13.85
2022-10-12T01:12:25.805Z,14.60
2022-10-12T01:14:53.743Z,18.45
2022-10-12T01:17:36.672Z,14.40
2022-10-12T01:20:35.422Z,14.18
2022-10-12T01:23:18.169Z,15.65
2022-10-12T01:26:11.410Z,14.68
2022-10-12T01:29:05.650Z,13.65
2022-10-12T01:32:08.924Z,21.83
2022-10-12T01:35:14.398Z,15.88
2022-10-12T01:38:02.413Z,15.82
2022-10-12T01:40:49.375Z,16.52
2022-10-12T01:43:22.433Z,18.00
2022-10-12T01:45:51.663Z,16.85
2022-10-12T01:48:23.052Z,14.43
2022-10-12T01:50:58.086Z,16.67
2022-10-12T01:53:43.390Z,18.13
2022-10-12T01:56:23.585Z,14.95
2022-10-12T01:59:01.653Z,15.52
2022-10-12T02:01:41.552Z,16.13
2022-10-12T02:04:21.618Z,18.67
2022-10-12T02:07:04.285Z,20.80
2022-10-12T02:09:35.757Z,13.73
2022-10-12T02:14:46.127Z,15.70
2022-10-12T02:17:17.744Z,16.77
2022-10-12T02:19:51.519Z,15.40
2022-10-12T02:22:19.844Z,17.75
2022-10-12T02:24:50.211Z,17.80
2022-10-12T02:27:20.946Z,15.38
2022-10-12T02:29:50.446Z,18.58
2022-10-12T02:32:26.084Z,15.52
2022-10-12T02:35:14.850Z,16.38
2022-10-12T02:37:52.435Z,16.17
2022-10-12T02:40:36.506Z,19.45
2022-10-12T02:43:15.009Z,16.45
2022-10-12T02:45:46.331Z,19.48
2022-10-12T02:48:20.161Z,17.83
2022-10-12T02:50:54.261Z,16.65
2022-10-12T02:53:26.763Z,22.77
2022-10-12T02:56:00.388Z,24.73
2022-10-12T02:58:28.331Z,18.33
2022-10-12T03:00:56.237Z,19.65
2022-10-12T03:03:24.251Z,22.95
2022-10-12T03:05:52.254Z,22.80
2022-10-12T03:08:20.155Z,18.35
2022-10-12T03:10:50.268Z,20.25
2022-10-12T03:13:18.274Z,19.88
2022-10-12T03:15:46.370Z,19.15
2022-10-12T03:18:14.477Z,20.85
2022-10-12T03:20:42.335Z,18.20
2022-10-12T03:23:10.244Z,26.75
2022-10-12T03:25:38.046Z,17.40
2022-10-12T03:28:05.978Z,20.33
2022-10-12T03:30:33.813Z,20.20
2022-10-12T03:33:01.790Z,20.02
2022-10-12T03:35:30.235Z,22.02
2022-10-12T03:37:58.176Z,18.80
2022-10-12T03:40:28.835Z,21.60
2022-10-12T03:42:58.185Z,17.38
2022-10-12T03:45:26.090Z,19.33
2022-10-12T03:47:53.937Z,21.20
2022-10-12T03:50:21.798Z,20.38
2022-10-12T03:52:50.291Z,16.13
2022-10-12T03:55:18.357Z,18.48
2022-10-12T03:57:46.905Z,16.05
2022-10-12T04:00:15.374Z,20.50
2022-10-12T04:02:43.210Z,21.05
2022-10-12T04:05:11.122Z,19.70
2022-10-12T04:07:39.296Z,18.90
2022-10-12T04:10:08.429Z,20.08
2022-10-12T04:12:36.566Z,18.83
2022-10-12T04:15:05.484Z,18.42
2022-10-12T04:17:33.579Z,20.90
2022-10-12T04:20:01.479Z,16.70
2022-10-12T04:22:29.397Z,20.67
2022-10-12T04:24:57.283Z,19.65
2022-10-12T04:27:25.233Z,22.15
2022-10-12T04:29:53.118Z,18.92
2022-10-12T04:32:21.111Z,19.13
2022-10-12T04:34:48.989Z,16.42
2022-10-12T04:37:17.272Z,15.13
2022-10-12T04:39:45.191Z,22.65
2022-10-12T04:42:13.219Z,18.83
2022-10-12T04:44:41.088Z,19.83
2022-10-12T04:47:09.086Z,19.17
2022-10-12T04:49:36.973Z,19.55
2022-10-12T04:52:08.119Z,23.08
2022-10-12T04:54:38.691Z,22.88
2022-10-12T04:57:07.811Z,22.60
2022-10-12T04:59:35.786Z,20.08
2022-10-12T05:02:03.685Z,23.15
2022-10-12T05:04:31.688Z,25.10
2022-10-12T05:06:59.584Z,22.27
2022-10-12T05:09:28.221Z,19.05
2022-10-12T05:11:56.123Z,23.25
2022-10-12T05:14:24.075Z,25.70
2022-10-12T05:16:51.914Z,19.50
2022-10-12T05:19:19.793Z,19.13
2022-10-12T05:21:48.015Z,24.02
2022-10-12T05:24:16.022Z,20.50
2022-10-12T05:26:43.963Z,16.42
2022-10-12T05:29:12.183Z,17.42
2022-10-12T05:31:40.054Z,18.35
2022-10-12T05:34:07.902Z,22.45
2022-10-12T05:36:35.917Z,17.08
2022-10-12T05:39:10.041Z,19.80
2022-10-12T05:41:38.047Z,18.63
2022-10-12T05:44:06.382Z,21.25
2022-10-12T05:46:34.671Z,22.48
2022-10-12T05:49:02.601Z,21.20
2022-10-12T05:51:30.449Z,22.10
2022-10-12T05:53:58.311Z,21.75
2022-10-12T05:56:26.214Z,19.42
2022-10-12T05:58:54.114Z,17.50
2022-10-12T06:01:22.166Z,15.43
2022-10-12T06:03:50.100Z,20.27
2022-10-12T06:06:18.002Z,18.92
2022-10-12T06:08:45.860Z,21.88
2022-10-12T06:11:14.777Z,22.00
2022-10-12T06:13:42.648Z,23.27
2022-10-12T06:16:10.492Z,19.33
2022-10-12T06:18:38.430Z,21.13
2022-10-12T06:21:32.065Z,22.50
2022-10-12T06:23:54.665Z,18.15
2022-10-12T06:26:22.509Z,22.45
2022-10-12T06:28:50.418Z,17.17
2022-10-12T06:31:25.745Z,22.55
2022-10-12T06:33:56.927Z,23.88
2022-10-12T06:36:25.170Z,20.20
2022-10-12T06:38:53.164Z,20.85
2022-10-12T06:41:21.074Z,15.73
2022-10-12T06:43:48.919Z,23.00
2022-10-12T06:46:16.852Z,19.70
2022-10-12T06:48:44.751Z,20.58
2022-10-12T06:51:12.695Z,17.65
2022-10-12T06:53:40.538Z,16.88
2022-10-12T06:56:12.431Z,17.25
2022-10-12T06:58:40.630Z,18.10
2022-10-12T07:01:11.359Z,16.35
2022-10-12T07:03:39.430Z,14.98
2022-10-12T07:06:12.059Z,14.80
2022-10-12T07:08:40.902Z,19.88
2022-10-12T07:11:11.658Z,17.70
2022-10-12T07:13:39.669Z,17.92
2022-10-12T07:16:07.994Z,19.27
2022-10-12T07:18:35.976Z,17.58
2022-10-12T07:21:04.011Z,17.25
2022-10-12T07:23:33.682Z,22.95
2022-10-12T07:26:02.172Z,17.52
2022-10-12T07:28:30.423Z,19.77
2022-10-12T07:31:06.009Z,24.45
2022-10-12T07:33:39.745Z,20.42
2022-10-12T07:36:20.779Z,19.55
2022-10-12T07:38:50.618Z,22.58
2022-10-12T07:41:21.611Z,21.33
2022-10-12T07:43:49.518Z,15.05
2022-10-12T07:46:17.380Z,19.58
2022-10-12T07:48:50.104Z,18.65
2022-10-12T07:51:18.759Z,19.15
2022-10-12T07:53:46.855Z,19.90
2022-10-12T07:56:18.771Z,20.98
2022-10-12T07:58:55.166Z,19.58
2022-10-12T08:01:25.113Z,21.83
2022-10-12T08:03:58.818Z,16.58
2022-10-12T08:06:32.408Z,16.02
2022-10-12T08:09:02.309Z,16.83
2022-10-12T08:11:30.928Z,15.43
2022-10-12T08:13:59.307Z,18.00
2022-10-12T08:16:27.398Z,17.48
2022-10-12T08:18:55.471Z,17.10
2022-10-12T08:21:23.545Z,18.25
2022-10-12T08:23:51.810Z,13.57
2022-10-12T08:26:19.776Z,15.45
2022-10-12T08:28:48.047Z,15.63
2022-10-12T08:31:18.734Z,12.70
2022-10-12T08:33:46.781Z,19.33
2022-10-12T08:36:15.087Z,13.68
2022-10-12T08:38:44.700Z,18.77
2022-10-12T08:41:35.219Z,16.10
2022-10-12T08:44:20.241Z,25.17
2022-10-12T08:46:49.043Z,24.27
2022-10-12T08:49:27.403Z,15.95
2022-10-12T08:51:58.070Z,14.88
2022-10-12T08:54:30.806Z,13.15
2022-10-12T08:56:59.925Z,13.98
2022-10-12T08:59:30.764Z,13.77
2022-10-12T09:02:32.462Z,14.05
2022-10-12T09:05:08.874Z,13.05
2022-10-12T09:07:43.758Z,15.93
2022-10-12T09:10:47.043Z,16.92
2022-10-12T09:13:23.475Z,12.85
2022-10-12T09:16:01.494Z,15.68
2022-10-12T09:18:41.526Z,14.75
2022-10-12T09:21:20.795Z,14.00
2022-10-12T09:23:49.838Z,15.00
2022-10-12T09:26:38.552Z,14.88
2022-10-12T09:29:27.219Z,16.48
2022-10-12T09:32:32.554Z,13.90
2022-10-12T09:35:01.376Z,16.70
2022-10-12T09:37:32.887Z,13.88
2022-10-12T09:40:05.575Z,15.75
2022-10-12T09:42:36.408Z,16.58
2022-10-12T09:47:41.479Z,18.45
2022-10-12T09:50:09.839Z,18.65
2022-10-12T09:52:46.071Z,15.90
2022-10-12T09:55:14.198Z,17.60
2022-10-12T09:57:45.665Z,18.10
2022-10-12T10:00:31.860Z,14.23
2022-10-12T10:03:00.600Z,18.92
2022-10-12T10:05:33.130Z,16.25
2022-10-12T10:08:24.721Z,16.95
2022-10-12T10:10:57.581Z,19.75
2022-10-12T10:13:29.817Z,17.13
2022-10-12T10:16:11.692Z,14.38
2022-10-12T10:18:50.048Z,17.42
2022-10-12T10:21:34.776Z,19.55
2022-10-12T10:24:08.211Z,17.17
2022-10-12T10:26:57.729Z,16.92
2022-10-12T10:29:34.949Z,18.50
2022-10-12T10:32:31.132Z,23.55
2022-10-12T10:35:21.472Z,16.30
2022-10-12T10:37:57.744Z,20.13
2022-10-12T10:40:30.211Z,20.85
2022-10-12T10:43:06.122Z,21.55
2022-10-12T10:48:25.765Z,17.90
2022-10-12T10:50:57.735Z,20.10
2022-10-12T10:56:18.885Z,23.42
2022-10-12T10:58:58.853Z,20.15
2022-10-12T11:01:32.465Z,22.27
2022-10-12T11:04:05.510Z,22.67
2022-10-12T11:06:48.144Z,18.05
2022-10-12T11:09:27.708Z,21.13
2022-10-12T11:12:07.907Z,25.95
2022-10-12T11:14:41.403Z,21.98
2022-10-12T11:17:20.236Z,23.40
2022-10-12T11:19:54.718Z,26.48
2022-10-12T11:22:29.611Z,21.95
2022-10-12T11:25:11.458Z,26.42
2022-10-12T11:27:41.441Z,23.60
2022-10-12T11:30:20.537Z,22.60
2022-10-12T11:33:06.542Z,20.70
2022-10-12T11:35:39.601Z,24.88
2022-10-12T11:38:14.950Z,23.35
2022-10-12T11:41:09.155Z,24.50
2022-10-12T11:43:43.736Z,22.70
2022-10-12T11:46:19.020Z,26.80
2022-10-12T11:49:03.866Z,25.08
2022-10-12T11:51:31.790Z,22.98
2022-10-12T11:54:08.216Z,24.15
2022-10-12T11:56:44.949Z,23.02
2022-10-12T11:59:31.816Z,20.92
2022-10-12T12:02:22.147Z,20.95
2022-10-12T12:04:54.894Z,21.20
2022-10-12T12:07:55.936Z,23.25
2022-10-12T12:10:36.211Z,25.20
2022-10-12T12:13:22.049Z,20.95
2022-10-12T12:15:58.318Z,19.65
2022-10-12T12:18:31.482Z,18.77
2022-10-12T12:21:08.519Z,21.45
2022-10-12T12:23:39.737Z,31.15
2022-10-12T12:26:16.867Z,19.15
2022-10-12T12:28:50.320Z,18.15
2022-10-12T12:31:24.838Z,22.75
2022-10-12T12:34:12.856Z,26.38
2022-10-12T12:36:45.855Z,18.88
2022-10-12T12:39:23.207Z,21.27
2022-10-12T12:42:01.950Z,23.38
2022-10-12T12:44:39.302Z,16.48
2022-10-12T12:47:44.193Z,17.63
2022-10-12T12:50:03.648Z,23.00
2022-10-12T12:52:35.659Z,20.40
2022-10-12T12:55:41.019Z,19.15
2022-10-12T12:58:15.592Z,22.60
2022-10-12T13:01:08.052Z,16.73
2022-10-12T13:03:39.117Z,19.83
2022-10-12T13:06:40.795Z,21.95
2022-10-12T13:09:37.070Z,17.70
2022-10-12T13:12:13.871Z,16.15
2022-10-12T13:14:53.619Z,34.60
2022-10-12T13:17:45.737Z,40.78
2022-10-12T13:20:19.517Z,16.77
2022-10-12T13:22:51.457Z,21.10
2022-10-12T13:25:30.522Z,15.93
2022-10-12T13:28:05.371Z,15.73
2022-10-12T13:30:47.493Z,15.77
2022-10-12T13:33:35.784Z,19.38
2022-10-12T13:36:14.414Z,18.02
2022-10-12T13:38:42.574Z,15.75
2022-10-12T13:41:31.350Z,19.23
2022-10-12T13:44:00.370Z,18.42
2022-10-12T13:46:43.633Z,13.77
2022-10-12T13:52:17.270Z,18.90
2022-10-12T13:54:49.894Z,25.58
2022-10-12T13:57:45.431Z,19.15
2022-10-12T14:00:16.505Z,22.25
2022-10-12T14:05:22.363Z,22.25
2022-10-12T14:07:58.976Z,19.80
2022-10-12T14:10:36.389Z,22.67
2022-10-12T14:13:06.342Z,22.42
2022-10-12T14:15:38.814Z,22.63
2022-10-12T14:18:41.687Z,19.95
2022-10-12T14:21:24.613Z,24.77
2022-10-12T14:24:00.209Z,25.85
2022-10-12T14:26:39.787Z,26.77
2022-10-12T14:29:30.315Z,23.58
2022-10-12T14:32:00.874Z,22.23
2022-10-12T14:34:28.856Z,24.25
2022-10-12T14:37:15.805Z,21.88
2022-10-12T14:39:45.886Z,22.08
2022-10-12T14:42:34.253Z,27.13
2022-10-12T14:45:08.078Z,24.55
2022-10-12T14:47:39.907Z,25.17
2022-10-12T14:50:10.918Z,25.15
2022-10-12T14:52:46.870Z,23.83
2022-10-12T14:55:23.402Z,21.73
2022-10-12T14:57:51.885Z,23.25
2022-10-12T15:00:26.542Z,24.52
2022-10-12T15:02:54.984Z,24.02
2022-10-12T15:05:25.269Z,27.83
2022-10-12T15:07:53.752Z,28.60
2022-10-12T15:10:23.899Z,27.23
2022-10-12T15:12:52.795Z,28.20
2022-10-12T15:15:48.482Z,31.48
2022-10-12T15:18:16.791Z,28.95
2022-10-12T15:20:49.198Z,27.92
2022-10-12T15:23:17.969Z,33.38
2022-10-12T15:25:52.779Z,30.00
2022-10-12T15:28:21.955Z,35.45
2022-10-12T15:31:16.477Z,36.00
2022-10-12T15:33:41.299Z,32.55
2022-10-12T15:36:10.292Z,34.38
2022-10-12T15:38:38.386Z,35.05
2022-10-12T15:41:07.115Z,34.15
2022-10-12T15:43:38.068Z,35.85
2022-10-12T15:46:15.183Z,38.03
2022-10-12T15:48:45.078Z,37.80
2022-10-12T15:51:26.953Z,38.55
2022-10-12T15:53:55.986Z,40.30
2022-10-12T15:56:24.188Z,35.90
2022-10-12T15:58:52.410Z,37.50
2022-10-12T16:01:21.947Z,39.90
2022-10-12T16:03:53.463Z,37.90
2022-10-12T16:06:21.724Z,36.05
2022-10-12T16:08:49.790Z,36.92
2022-10-12T16:11:46.804Z,38.08
2022-10-12T16:14:19.477Z,39.35
2022-10-12T16:16:48.063Z,35.13
2022-10-12T16:19:22.871Z,37.15
2022-10-12T16:21:53.521Z,34.75
2022-10-12T16:24:21.498Z,36.10
2022-10-12T16:26:52.738Z,34.33
2022-10-12T16:29:20.843Z,41.20
2022-10-12T16:31:50.005Z,38.03
2022-10-12T16:34:18.242Z,37.97
2022-10-12T16:36:46.329Z,42.78
2022-10-12T16:39:16.834Z,40.08
2022-10-12T16:41:44.895Z,36.47
2022-10-12T16:44:13.225Z,36.28
2022-10-12T16:46:41.852Z,36.47
2022-10-12T16:49:09.823Z,35.28
2022-10-12T16:51:38.020Z,37.13
2022-10-12T16:54:06.437Z,39.63
2022-10-12T16:56:39.145Z,40.65
2022-10-12T16:59:07.476Z,38.72
2022-10-12T17:01:35.528Z,41.38
2022-10-12T17:04:06.821Z,39.03
2022-10-12T17:06:35.040Z,38.88
2022-10-12T17:09:03.223Z,40.97
2022-10-12T17:11:31.394Z,40.92
2022-10-12T17:13:59.880Z,43.65
2022-10-12T17:16:46.353Z,39.40
2022-10-12T17:19:16.267Z,41.20
2022-10-12T17:21:51.194Z,45.58
2022-10-12T17:24:23.657Z,47.95
2022-10-12T17:26:51.934Z,38.63
2022-10-12T17:29:21.189Z,38.10
2022-10-12T17:31:57.967Z,43.88
2022-10-12T17:34:38.931Z,42.15
2022-10-12T17:37:13.271Z,42.58
2022-10-12T17:39:46.743Z,43.55
2022-10-12T17:42:15.051Z,42.40
2022-10-12T17:47:26.781Z,44.08
2022-10-12T17:49:54.675Z,44.80
2022-10-12T17:52:22.708Z,42.08
2022-10-12T17:54:50.603Z,44.72
2022-10-12T17:57:20.105Z,51.00
2022-10-12T17:59:54.842Z,60.58
2022-10-12T18:02:26.182Z,87.90
2022-10-12T18:04:56.599Z,79.88
2022-10-12T18:07:27.561Z,64.88
2022-10-12T18:10:04.383Z,55.40
2022-10-12T18:12:36.506Z,42.70
2022-10-12T18:15:13.608Z,46.25
2022-10-12T18:17:45.798Z,47.67
2022-10-12T18:20:14.115Z,43.45
2022-10-12T18:22:41.942Z,44.03
2022-10-12T18:25:09.950Z,49.58
2022-10-12T18:27:37.803Z,47.45
2022-10-12T18:30:08.335Z,46.33
2022-10-12T18:32:38.870Z,48.28
2022-10-12T18:35:07.071Z,44.90
2022-10-12T18:37:38.083Z,40.15
2022-10-12T18:40:11.602Z,44.65
2022-10-12T18:42:41.920Z,46.60
2022-10-12T18:45:19.533Z,50.15
2022-10-12T18:47:47.560Z,51.25
2022-10-12T18:50:19.221Z,46.92
2022-10-12T18:52:47.417Z,51.50
2022-10-12T18:55:15.324Z,49.90
2022-10-12T18:57:43.586Z,45.45
2022-10-12T19:00:11.794Z,45.28
2022-10-12T19:02:39.757Z,47.45
2022-10-12T19:05:07.842Z,41.60
2022-10-12T19:07:36.469Z,46.58
2022-10-12T19:10:09.127Z,63.50
2022-10-12T19:12:37.175Z,78.95
2022-10-12T19:15:06.046Z,38.03
2022-10-12T19:17:34.458Z,45.25
2022-10-12T19:20:03.935Z,41.70
2022-10-12T19:22:31.877Z,44.10
2022-10-12T19:25:02.672Z,42.20
2022-10-12T19:27:30.549Z,47.45
2022-10-12T19:29:58.447Z,42.25
2022-10-12T19:32:26.464Z,42.10
2022-10-12T19:34:54.766Z,43.05
2022-10-12T19:37:22.734Z,41.15
2022-10-12T19:39:50.616Z,44.05
2022-10-12T19:42:18.799Z,47.17
2022-10-12T19:44:47.133Z,56.17
2022-10-12T19:47:15.126Z,59.17
2022-10-12T19:49:45.260Z,53.85
2022-10-12T19:52:13.873Z,55.03
2022-10-12T19:54:41.728Z,52.22
2022-10-12T19:57:12.863Z,56.88
2022-10-12T19:59:40.815Z,55.15
2022-10-12T20:02:10.604Z,54.42
2022-10-12T20:04:38.581Z,52.10
2022-10-12T20:07:06.525Z,46.08
2022-10-12T20:09:34.438Z,46.45
2022-10-12T20:12:02.720Z,41.92
2022-10-12T20:14:31.010Z,45.10
2022-10-12T20:16:59.950Z,56.03
2022-10-12T20:19:30.361Z,47.08
2022-10-12T20:21:58.915Z,46.13
2022-10-12T20:24:27.586Z,43.67
2022-10-12T20:26:55.446Z,43.20
2022-10-12T20:29:23.278Z,43.90
2022-10-12T20:31:51.176Z,47.55
2022-10-12T20:34:19.017Z,50.90
2022-10-12T20:36:47.068Z,49.70
2022-10-12T20:39:15.474Z,47.70
2022-10-12T20:41:43.598Z,53.90
2022-10-12T20:44:11.901Z,50.33
2022-10-12T20:46:39.795Z,46.85
2022-10-12T20:49:07.714Z,46.78
2022-10-12T20:51:37.587Z,41.55
2022-10-12T20:54:07.010Z,43.88
2022-10-12T20:56:35.486Z,46.30
2022-10-12T20:59:03.405Z,45.28
2022-10-12T21:01:31.434Z,45.17
2022-10-12T21:03:59.322Z,45.58
2022-10-12T21:06:27.637Z,47.30
2022-10-12T21:08:57.836Z,48.85
2022-10-12T21:11:26.253Z,48.40
2022-10-12T21:13:55.813Z,47.88
2022-10-12T21:16:24.101Z,41.97
2022-10-12T21:18:55.342Z,49.58
2022-10-12T21:21:23.839Z,48.35
2022-10-12T21:23:57.515Z,44.55
2022-10-12T21:26:27.576Z,42.50
2022-10-12T21:28:55.794Z,48.35
2022-10-12T21:31:27.119Z,48.85
2022-10-12T21:34:03.668Z,51.08
2022-10-12T21:36:32.767Z,46.78
2022-10-12T21:39:00.631Z,45.60
2022-10-12T21:41:32.197Z,44.33
2022-10-12T21:44:04.376Z,40.72
2022-10-12T21:46:36.139Z,49.33
2022-10-12T21:49:05.889Z,46.67
2022-10-12T21:51:33.787Z,42.65
2022-10-12T21:54:01.837Z,39.45
2022-10-12T21:56:34.703Z,47.60
2022-10-12T21:59:03.904Z,37.60
2022-10-12T22:01:40.010Z,41.47
2022-10-12T22:04:13.089Z,40.28
2022-10-12T22:06:41.621Z,38.60
2022-10-12T22:09:14.122Z,35.58
2022-10-12T22:11:42.018Z,44.63
2022-10-12T22:14:16.983Z,39.72
2022-10-12T22:16:46.803Z,38.45
2022-10-12T22:19:19.663Z,41.72
2022-10-12T22:21:52.620Z,33.50
2022-10-12T22:24:21.688Z,31.33
2022-10-12T22:26:51.890Z,34.65
2022-10-12T22:29:20.162Z,34.13
2022-10-12T22:31:50.817Z,32.58
2022-10-12T22:34:21.999Z,29.50
2022-10-12T22:36:49.901Z,31.88
2022-10-12T22:39:25.343Z,32.15
2022-10-12T22:41:53.280Z,34.58
2022-10-12T22:44:21.288Z,40.78
2022-10-12T22:46:53.819Z,37.75
2022-10-12T22:49:21.705Z,42.28
2022-10-12T22:51:49.671Z,34.15
2022-10-12T22:54:17.570Z,32.47
2022-10-12T22:56:46.639Z,31.73
2022-10-12T22:59:16.286Z,33.25
2022-10-12T23:01:44.548Z,38.50
2022-10-12T23:04:12.600Z,32.17
2022-10-12T23:06:40.477Z,31.63
2022-10-12T23:09:08.373Z,36.47
2022-10-12T23:11:36.320Z,44.47
2022-10-12T23:14:04.312Z,41.70
2022-10-12T23:16:34.015Z,42.20
2022-10-12T23:19:04.713Z,45.85
2022-10-12T23:21:34.699Z,39.03
2022-10-12T23:24:03.710Z,43.13
2022-10-12T23:26:32.067Z,40.75
2022-10-12T23:29:01.231Z,42.20
2022-10-12T23:31:31.838Z,38.90
2022-10-12T23:34:03.800Z,34.17
2022-10-12T23:36:32.596Z,37.88
2022-10-12T23:39:02.274Z,41.10
2022-10-12T23:41:30.396Z,39.40
2022-10-12T23:43:58.393Z,46.92
2022-10-12T23:46:26.440Z,39.33
2022-10-12T23:48:56.629Z,35.85
2022-10-12T23:51:25.036Z,36.70
2022-10-12T23:53:55.232Z,39.00
2022-10-12T23:56:23.094Z,32.85
2022-10-12T23:58:54.276Z,38.00
